sensor_id;sensor_type;location;lat;lon;timestamp;pressure;altitude;pressure_sealevel;temperature;humidity
50125;BME280;36023;48.670;6.184;2023-03-16T00:00:14;99275.06;;;15.94;39.31
50125;BME280;36023;48.670;6.184;2023-03-16T00:02:41;99277.69;;;15.94;39.47
50125;BME280;36023;48.670;6.184;2023-03-16T00:05:08;99277.75;;;15.93;39.29
50125;BME280;36023;48.670;6.184;2023-03-16T00:07:35;99278.66;;;15.92;39.09
50125;BME280;36023;48.670;6.184;2023-03-16T00:10:01;99283.88;;;15.92;39.11
50125;BME280;36023;48.670;6.184;2023-03-16T00:12:28;99279.56;;;15.91;39.11
50125;BME280;36023;48.670;6.184;2023-03-16T00:14:53;99278.72;;;15.90;39.14
50125;BME280;36023;48.670;6.184;2023-03-16T00:17:19;99280.47;;;15.90;39.18
50125;BME280;36023;48.670;6.184;2023-03-16T00:19:50;99274.47;;;15.87;39.05
50125;BME280;36023;48.670;6.184;2023-03-16T00:22:24;99276.22;;;15.87;39.12
50125;BME280;36023;48.670;6.184;2023-03-16T00:24:51;99274.47;;;15.87;39.05
50125;BME280;36023;48.670;6.184;2023-03-16T00:27:18;99266.69;;;15.86;39.06
50125;BME280;36023;48.670;6.184;2023-03-16T00:29:45;99265.81;;;15.85;38.94
50125;BME280;36023;48.670;6.184;2023-03-16T00:32:16;99267.59;;;15.85;38.95
50125;BME280;36023;48.670;6.184;2023-03-16T00:34:43;99268.50;;;15.84;38.96
50125;BME280;36023;48.670;6.184;2023-03-16T00:37:10;99263.28;;;15.84;38.96
50125;BME280;36023;48.670;6.184;2023-03-16T00:39:41;99264.19;;;15.83;38.90
50125;BME280;36023;48.670;6.184;2023-03-16T00:42:08;99261.59;;;15.83;38.86
50125;BME280;36023;48.670;6.184;2023-03-16T00:44:35;99265.09;;;15.82;38.81
50125;BME280;36023;48.670;6.184;2023-03-16T00:47:03;99260.78;;;15.81;38.83
50125;BME280;36023;48.670;6.184;2023-03-16T00:49:28;99251.25;;;15.80;38.86
50125;BME280;36023;48.670;6.184;2023-03-16T00:51:54;99247.78;;;15.79;38.73
50125;BME280;36023;48.670;6.184;2023-03-16T00:54:22;99245.16;;;15.79;38.80
50125;BME280;36023;48.670;6.184;2023-03-16T00:56:50;99245.22;;;15.78;38.83
50125;BME280;36023;48.670;6.184;2023-03-16T00:59:16;99244.38;;;15.77;38.69
50125;BME280;36023;48.670;6.184;2023-03-16T01:01:43;99251.38;;;15.77;38.67
50125;BME280;36023;48.670;6.184;2023-03-16T01:04:11;99246.13;;;15.77;38.81
50125;BME280;36023;48.670;6.184;2023-03-16T01:06:38;99250.56;;;15.75;38.75
50125;BME280;36023;48.670;6.184;2023-03-16T01:09:06;99245.34;;;15.75;38.75
50125;BME280;36023;48.670;6.184;2023-03-16T01:11:32;99246.28;;;15.74;38.84
50125;BME280;36023;48.670;6.184;2023-03-16T01:13:58;99241.06;;;15.74;38.62
50125;BME280;36023;48.670;6.184;2023-03-16T01:16:25;99243.66;;;15.74;38.65
50125;BME280;36023;48.670;6.184;2023-03-16T01:18:52;99243.72;;;15.72;38.58
50125;BME280;36023;48.670;6.184;2023-03-16T01:21:18;99235.91;;;15.72;38.68
50125;BME280;36023;48.670;6.184;2023-03-16T01:23:43;99229.78;;;15.72;38.68
50125;BME280;36023;48.670;6.184;2023-03-16T01:26:10;99234.16;;;15.71;38.68
50125;BME280;36023;48.670;6.184;2023-03-16T01:28:36;99226.31;;;15.71;38.71
50125;BME280;36023;48.670;6.184;2023-03-16T01:31:08;99222.03;;;15.70;38.64
50125;BME280;36023;48.670;6.184;2023-03-16T01:33:34;99225.47;;;15.71;38.58
50125;BME280;36023;48.670;6.184;2023-03-16T01:38:33;99221.16;;;15.70;38.59
50125;BME280;36023;48.670;6.184;2023-03-16T01:41:00;99215.09;;;15.69;38.41
50125;BME280;36023;48.670;6.184;2023-03-16T01:43:29;99217.72;;;15.69;38.65
50125;BME280;36023;48.670;6.184;2023-03-16T01:48:39;99210.78;;;15.68;38.51
50125;BME280;36023;48.670;6.184;2023-03-16T01:51:15;99215.16;;;15.68;38.51
50125;BME280;36023;48.670;6.184;2023-03-16T01:53:46;99208.19;;;15.68;38.48
50125;BME280;36023;48.670;6.184;2023-03-16T01:56:18;99205.69;;;15.65;38.58
50125;BME280;36023;48.670;6.184;2023-03-16T01:58:45;99209.16;;;15.66;38.46
50125;BME280;36023;48.670;6.184;2023-03-16T02:01:12;99215.31;;;15.65;38.51
50125;BME280;36023;48.670;6.184;2023-03-16T02:03:40;99211.78;;;15.66;38.54
50125;BME280;36023;48.670;6.184;2023-03-16T02:06:18;99210.06;;;15.65;38.54
50125;BME280;36023;48.670;6.184;2023-03-16T02:08:51;99202.25;;;15.65;38.50
50125;BME280;36023;48.670;6.184;2023-03-16T02:11:22;99187.47;;;15.64;38.50
50125;BME280;36023;48.670;6.184;2023-03-16T02:14:09;99197.06;;;15.63;38.43
50125;BME280;36023;48.670;6.184;2023-03-16T02:16:35;99201.44;;;15.63;38.43
50125;BME280;36023;48.670;6.184;2023-03-16T02:19:02;99197.97;;;15.62;38.49
50125;BME280;36023;48.670;6.184;2023-03-16T02:21:44;99189.28;;;15.62;38.47
50125;BME280;36023;48.670;6.184;2023-03-16T02:24:14;99186.69;;;15.62;38.45
50125;BME280;36023;48.670;6.184;2023-03-16T02:26:57;99178.84;;;15.62;38.52
50125;BME280;36023;48.670;6.184;2023-03-16T02:32:11;99173.66;;;15.60;38.43
50125;BME280;36023;48.670;6.184;2023-03-16T02:34:38;99169.34;;;15.59;38.36
50125;BME280;36023;48.670;6.184;2023-03-16T02:37:04;99164.13;;;15.59;38.39
50125;BME280;36023;48.670;6.184;2023-03-16T02:39:35;99157.16;;;15.59;38.45
50125;BME280;36023;48.670;6.184;2023-03-16T02:42:03;99161.53;;;15.59;38.31
50125;BME280;36023;48.670;6.184;2023-03-16T02:44:34;99152.84;;;15.58;38.45
50125;BME280;36023;48.670;6.184;2023-03-16T02:47:06;99153.75;;;15.57;38.32
50125;BME280;36023;48.670;6.184;2023-03-16T02:49:41;99152.06;;;15.56;38.44
50125;BME280;36023;48.670;6.184;2023-03-16T02:52:09;99145.09;;;15.55;38.23
50125;BME280;36023;48.670;6.184;2023-03-16T02:54:37;99145.09;;;15.55;38.31
50125;BME280;36023;48.670;6.184;2023-03-16T02:57:04;99141.66;;;15.55;38.29
50125;BME280;36023;48.670;6.184;2023-03-16T02:59:32;99144.25;;;15.55;38.26
50125;BME280;36023;48.670;6.184;2023-03-16T03:01:57;99136.50;;;15.53;38.17
50125;BME280;36023;48.670;6.184;2023-03-16T03:04:23;99142.63;;;15.52;38.36
50125;BME280;36023;48.670;6.184;2023-03-16T03:06:50;99137.34;;;15.54;38.23
50125;BME280;36023;48.670;6.184;2023-03-16T03:09:17;99139.09;;;15.53;38.26
50125;BME280;36023;48.670;6.184;2023-03-16T03:11:44;99142.63;;;15.52;38.34
50125;BME280;36023;48.670;6.184;2023-03-16T03:14:11;99134.03;;;15.50;38.37
50125;BME280;36023;48.670;6.184;2023-03-16T03:16:38;99131.41;;;15.50;38.41
50125;BME280;36023;48.670;6.184;2023-03-16T03:19:04;99126.19;;;15.50;38.32
50125;BME280;36023;48.670;6.184;2023-03-16T03:21:34;99130.56;;;15.50;38.48
50125;BME280;36023;48.670;6.184;2023-03-16T03:23:59;99121.03;;;15.49;38.19
50125;BME280;36023;48.670;6.184;2023-03-16T03:26:25;99115.81;;;15.49;38.29
50125;BME280;36023;48.670;6.184;2023-03-16T03:28:54;99116.69;;;15.48;38.28
50125;BME280;36023;48.670;6.184;2023-03-16T03:31:21;99114.09;;;15.48;38.33
50125;BME280;36023;48.670;6.184;2023-03-16T03:33:47;99119.31;;;15.48;38.29
50125;BME280;36023;48.670;6.184;2023-03-16T03:36:13;99123.69;;;15.47;38.33
50125;BME280;36023;48.670;6.184;2023-03-16T03:38:41;99120.22;;;15.47;38.24
50125;BME280;36023;48.670;6.184;2023-03-16T03:41:09;99115.00;;;15.47;38.25
50125;BME280;36023;48.670;6.184;2023-03-16T03:43:37;99117.63;;;15.47;38.23
50125;BME280;36023;48.670;6.184;2023-03-16T03:46:03;99113.25;;;15.47;38.30
50125;BME280;36023;48.670;6.184;2023-03-16T03:48:32;99116.75;;;15.46;38.20
50125;BME280;36023;48.670;6.184;2023-03-16T03:50:58;99109.84;;;15.45;38.14
50125;BME280;36023;48.670;6.184;2023-03-16T03:53:45;99105.47;;;15.46;38.17
50125;BME280;36023;48.670;6.184;2023-03-16T03:56:22;99096.81;;;15.45;38.26
50125;BME280;36023;48.670;6.184;2023-03-16T03:58:48;99096.81;;;15.45;38.14
50125;BME280;36023;48.670;6.184;2023-03-16T04:01:21;99096.03;;;15.43;38.23
50125;BME280;36023;48.670;6.184;2023-03-16T04:03:47;99087.28;;;15.44;38.23
50125;BME280;36023;48.670;6.184;2023-03-16T04:06:14;99082.06;;;15.44;38.17
50125;BME280;36023;48.670;6.184;2023-03-16T04:08:40;99082.06;;;15.44;38.16
50125;BME280;36023;48.670;6.184;2023-03-16T04:11:09;99082.97;;;15.43;38.48
50125;BME280;36023;48.670;6.184;2023-03-16T04:13:34;99090.81;;;15.43;38.11
50125;BME280;36023;48.670;6.184;2023-03-16T04:16:00;99094.31;;;15.42;38.04
50125;BME280;36023;48.670;6.184;2023-03-16T04:18:31;99095.25;;;15.41;38.07
50125;BME280;36023;48.670;6.184;2023-03-16T04:21:12;99096.09;;;15.42;38.05
50125;BME280;36023;48.670;6.184;2023-03-16T04:23:39;99101.31;;;15.42;38.02
50125;BME280;36023;48.670;6.184;2023-03-16T04:26:08;99099.56;;;15.41;38.14
50125;BME280;36023;48.670;6.184;2023-03-16T04:28:33;99099.66;;;15.39;38.07
50125;BME280;36023;48.670;6.184;2023-03-16T04:31:05;99103.09;;;15.40;38.08
50125;BME280;36023;48.670;6.184;2023-03-16T04:33:37;99101.41;;;15.39;38.22
50125;BME280;36023;48.670;6.184;2023-03-16T04:36:04;99103.16;;;15.38;38.00
50125;BME280;36023;48.670;6.184;2023-03-16T04:38:32;99103.16;;;15.38;38.17
50125;BME280;36023;48.670;6.184;2023-03-16T04:41:01;99099.72;;;15.38;37.94
50125;BME280;36023;48.670;6.184;2023-03-16T04:43:32;99099.78;;;15.36;38.01
50125;BME280;36023;48.670;6.184;2023-03-16T04:46:03;99093.66;;;15.37;38.05
50125;BME280;36023;48.670;6.184;2023-03-16T04:48:30;99091.94;;;15.36;38.14
50125;BME280;36023;48.670;6.184;2023-03-16T04:51:00;99091.16;;;15.34;37.95
50125;BME280;36023;48.670;6.184;2023-03-16T04:53:29;99091.16;;;15.34;37.99
50125;BME280;36023;48.670;6.184;2023-03-16T04:55:59;99099.00;;;15.34;37.94
50125;BME280;36023;48.670;6.184;2023-03-16T04:58:25;99104.22;;;15.34;37.91
50125;BME280;36023;48.670;6.184;2023-03-16T05:00:52;99095.56;;;15.32;38.07
50125;BME280;36023;48.670;6.184;2023-03-16T05:03:24;99094.69;;;15.33;37.96
50125;BME280;36023;48.670;6.184;2023-03-16T05:05:50;99089.50;;;15.31;37.91
50125;BME280;36023;48.670;6.184;2023-03-16T05:08:16;99085.13;;;15.32;37.95
50125;BME280;36023;48.670;6.184;2023-03-16T05:10:47;99079.06;;;15.31;37.89
50125;BME280;36023;48.670;6.184;2023-03-16T05:13:13;99079.13;;;15.30;37.95
50125;BME280;36023;48.670;6.184;2023-03-16T05:15:40;99079.13;;;15.30;37.96
50125;BME280;36023;48.670;6.184;2023-03-16T05:18:20;99094.78;;;15.30;37.95
50125;BME280;36023;48.670;6.184;2023-03-16T05:20:52;99092.25;;;15.28;37.89
50125;BME280;36023;48.670;6.184;2023-03-16T05:23:19;99094.91;;;15.27;37.79
50125;BME280;36023;48.670;6.184;2023-03-16T05:25:50;99094.91;;;15.27;37.84
50125;BME280;36023;48.670;6.184;2023-03-16T05:28:18;99097.47;;;15.28;37.87
50125;BME280;36023;48.670;6.184;2023-03-16T05:30:53;99074.06;;;15.27;38.03
50125;BME280;36023;48.670;6.184;2023-03-16T05:33:24;99057.53;;;15.26;37.85
50125;BME280;36023;48.670;6.184;2023-03-16T05:35:55;99046.28;;;15.24;37.93
50125;BME280;36023;48.670;6.184;2023-03-16T05:38:23;99040.19;;;15.25;37.93
50125;BME280;36023;48.670;6.184;2023-03-16T05:40:54;99041.94;;;15.25;38.03
50125;BME280;36023;48.670;6.184;2023-03-16T05:43:32;99054.94;;;15.26;38.06
50125;BME280;36023;48.670;6.184;2023-03-16T05:45:58;99066.88;;;15.32;38.15
50125;BME280;36023;48.670;6.184;2023-03-16T05:48:24;99055.22;;;15.41;38.25
50125;BME280;36023;48.670;6.184;2023-03-16T05:50:54;99045.34;;;15.49;38.30
50125;BME280;36023;48.670;6.184;2023-03-16T05:53:25;99051.09;;;15.57;38.26
50125;BME280;36023;48.670;6.184;2023-03-16T05:55:56;99047.28;;;15.66;38.22
50125;BME280;36023;48.670;6.184;2023-03-16T05:58:23;99047.91;;;15.72;38.09
50125;BME280;36023;48.670;6.184;2023-03-16T06:00:49;99048.47;;;15.79;38.17
50125;BME280;36023;48.670;6.184;2023-03-16T06:03:22;99058.66;;;15.85;38.17
50125;BME280;36023;48.670;6.184;2023-03-16T06:05:51;99059.31;;;15.90;37.91
50125;BME280;36023;48.670;6.184;2023-03-16T06:08:24;99068.59;;;15.97;38.04
50125;BME280;36023;48.670;6.184;2023-03-16T06:10:54;99072.78;;;16.01;37.93
50125;BME280;36023;48.670;6.184;2023-03-16T06:13:20;99076.06;;;16.06;37.75
50125;BME280;36023;48.670;6.184;2023-03-16T06:15:46;99074.09;;;16.11;37.61
50125;BME280;36023;48.670;6.184;2023-03-16T06:18:12;99080.88;;;16.15;37.64
50125;BME280;36023;48.670;6.184;2023-03-16T06:20:38;99087.69;;;16.20;37.61
50125;BME280;36023;48.670;6.184;2023-03-16T06:23:04;99093.53;;;16.25;37.47
50125;BME280;36023;48.670;6.184;2023-03-16T06:25:33;99089.06;;;16.28;37.55
50125;BME280;36023;48.670;6.184;2023-03-16T06:28:01;99087.06;;;16.33;37.16
50125;BME280;36023;48.670;6.184;2023-03-16T06:30:28;99074.75;;;16.37;37.25
50125;BME280;36023;48.670;6.184;2023-03-16T06:32:53;99066.75;;;16.40;37.37
50125;BME280;36023;48.670;6.184;2023-03-16T06:35:19;99068.41;;;16.42;37.30
50125;BME280;36023;48.670;6.184;2023-03-16T06:37:58;99067.41;;;16.45;37.19
50125;BME280;36023;48.670;6.184;2023-03-16T06:40:53;99070.72;;;16.49;37.12
50125;BME280;36023;48.670;6.184;2023-03-16T06:43:20;99073.28;;;16.50;37.09
50125;BME280;36023;48.670;6.184;2023-03-16T06:45:46;99070.59;;;16.52;37.08
50125;BME280;36023;48.670;6.184;2023-03-16T06:48:12;99066.16;;;16.54;36.83
50125;BME280;36023;48.670;6.184;2023-03-16T06:50:38;99055.63;;;16.55;36.98
50125;BME280;36023;48.670;6.184;2023-03-16T06:53:03;99043.38;;;16.56;36.84
50125;BME280;36023;48.670;6.184;2023-03-16T06:55:32;99052.03;;;16.58;37.05
50125;BME280;36023;48.670;6.184;2023-03-16T06:58:00;99053.72;;;16.59;36.94
50125;BME280;36023;48.670;6.184;2023-03-16T07:00:26;99054.50;;;16.61;36.96
50125;BME280;36023;48.670;6.184;2023-03-16T07:02:51;99052.72;;;16.61;36.79
50125;BME280;36023;48.670;6.184;2023-03-16T07:05:20;99055.28;;;16.63;36.88
50125;BME280;36023;48.670;6.184;2023-03-16T07:07:47;99062.19;;;16.64;36.81
50125;BME280;36023;48.670;6.184;2023-03-16T07:10:15;99063.03;;;16.64;36.84
50125;BME280;36023;48.670;6.184;2023-03-16T07:12:42;99049.94;;;16.66;36.85
50125;BME280;36023;48.670;6.184;2023-03-16T07:15:09;99056.84;;;16.67;36.76
50125;BME280;36023;48.670;6.184;2023-03-16T07:17:36;99059.38;;;16.68;36.73
50125;BME280;36023;48.670;6.184;2023-03-16T07:20:04;99059.38;;;16.68;36.79
50125;BME280;36023;48.670;6.184;2023-03-16T07:22:35;99062.81;;;16.70;36.71
50125;BME280;36023;48.670;6.184;2023-03-16T07:25:02;99064.50;;;16.71;36.75
50125;BME280;36023;48.670;6.184;2023-03-16T07:27:28;99069.72;;;16.71;36.74
50125;BME280;36023;48.670;6.184;2023-03-16T07:29:59;99067.91;;;16.74;36.81
50125;BME280;36023;48.670;6.184;2023-03-16T07:32:24;99079.22;;;16.74;36.87
50125;BME280;36023;48.670;6.184;2023-03-16T07:34:50;99072.31;;;16.73;36.80
50125;BME280;36023;48.670;6.184;2023-03-16T07:37:16;99068.69;;;16.76;36.80
50125;BME280;36023;48.670;6.184;2023-03-16T07:39:43;99068.59;;;16.77;36.82
50125;BME280;36023;48.670;6.184;2023-03-16T07:42:16;99070.38;;;16.77;36.88
50125;BME280;36023;48.670;6.184;2023-03-16T07:44:58;99067.69;;;16.78;36.72
50125;BME280;36023;48.670;6.184;2023-03-16T07:47:24;99064.22;;;16.78;36.78
50125;BME280;36023;48.670;6.184;2023-03-16T07:49:52;99063.31;;;16.79;36.84
50125;BME280;36023;48.670;6.184;2023-03-16T07:52:18;99063.31;;;16.79;36.89
50125;BME280;36023;48.670;6.184;2023-03-16T07:54:46;99057.16;;;16.80;36.88
50125;BME280;36023;48.670;6.184;2023-03-16T07:57:14;99049.25;;;16.81;37.53
50125;BME280;36023;48.670;6.184;2023-03-16T07:59:42;99047.19;;;16.88;38.20
50125;BME280;36023;48.670;6.184;2023-03-16T08:02:16;99048.59;;;16.95;38.70
50125;BME280;36023;48.670;6.184;2023-03-16T08:04:43;99048.31;;;17.01;39.27
50125;BME280;36023;48.670;6.184;2023-03-16T08:07:14;99048.13;;;17.06;39.68
50125;BME280;36023;48.670;6.184;2023-03-16T08:10:03;99045.34;;;17.09;40.43
50125;BME280;36023;48.670;6.184;2023-03-16T08:12:39;99037.28;;;17.13;40.84
50125;BME280;36023;48.670;6.184;2023-03-16T08:15:06;99039.00;;;17.14;40.87
50125;BME280;36023;48.670;6.184;2023-03-16T08:17:33;99038.22;;;17.12;41.35
50125;BME280;36023;48.670;6.184;2023-03-16T08:20:05;99045.19;;;17.12;41.58
50125;BME280;36023;48.670;6.184;2023-03-16T08:22:36;99045.28;;;17.10;41.87
50125;BME280;36023;48.670;6.184;2023-03-16T08:25:04;99044.50;;;17.08;42.14
50125;BME280;36023;48.670;6.184;2023-03-16T08:27:31;99045.44;;;17.07;42.16
50125;BME280;36023;48.670;6.184;2023-03-16T08:30:00;99045.50;;;17.06;42.59
50125;BME280;36023;48.670;6.184;2023-03-16T08:32:34;99042.09;;;17.04;42.84
50125;BME280;36023;48.670;6.184;2023-03-16T08:34:59;99040.47;;;17.01;42.86
50125;BME280;36023;48.670;6.184;2023-03-16T08:37:25;99027.63;;;16.96;43.03
50125;BME280;36023;48.670;6.184;2023-03-16T08:39:53;99021.59;;;16.94;43.34
50125;BME280;36023;48.670;6.184;2023-03-16T08:42:20;99030.44;;;16.92;43.20
50125;BME280;36023;48.670;6.184;2023-03-16T08:44:52;99027.09;;;16.88;43.39
50125;BME280;36023;48.670;6.184;2023-03-16T08:47:22;99034.25;;;16.85;43.40
50125;BME280;36023;48.670;6.184;2023-03-16T08:49:49;99028.34;;;16.81;43.64
50125;BME280;36023;48.670;6.184;2023-03-16T08:52:15;99029.38;;;16.77;43.62
50125;BME280;36023;48.670;6.184;2023-03-16T08:54:41;99020.88;;;16.72;43.52
50125;BME280;36023;48.670;6.184;2023-03-16T08:57:08;99022.06;;;16.65;43.50
50125;BME280;36023;48.670;6.184;2023-03-16T08:59:35;99024.06;;;16.60;43.66
50125;BME280;36023;48.670;6.184;2023-03-16T09:02:01;99017.41;;;16.53;43.51
50125;BME280;36023;48.670;6.184;2023-03-16T09:04:29;99016.66;;;16.49;43.48
50125;BME280;36023;48.670;6.184;2023-03-16T09:06:55;99011.59;;;16.46;43.76
50125;BME280;36023;48.670;6.184;2023-03-16T09:09:22;99005.44;;;16.47;43.88
50125;BME280;36023;48.670;6.184;2023-03-16T09:11:47;99001.97;;;16.47;43.85
50125;BME280;36023;48.670;6.184;2023-03-16T09:14:14;99003.81;;;16.44;43.98
50125;BME280;36023;48.670;6.184;2023-03-16T09:16:40;99011.75;;;16.43;43.92
50125;BME280;36023;48.670;6.184;2023-03-16T09:19:06;99009.13;;;16.43;44.06
50125;BME280;36023;48.670;6.184;2023-03-16T09:21:32;99008.22;;;16.44;43.82
50125;BME280;36023;48.670;6.184;2023-03-16T09:24:00;99006.38;;;16.46;44.20
50125;BME280;36023;48.670;6.184;2023-03-16T09:26:27;98998.44;;;16.48;44.07
50125;BME280;36023;48.670;6.184;2023-03-16T09:28:53;98999.28;;;16.48;44.04
50125;BME280;36023;48.670;6.184;2023-03-16T09:31:19;98991.31;;;16.51;44.04
50125;BME280;36023;48.670;6.184;2023-03-16T09:33:45;98997.31;;;16.53;43.93
50125;BME280;36023;48.670;6.184;2023-03-16T09:36:12;98983.34;;;16.54;43.93
50125;BME280;36023;48.670;6.184;2023-03-16T09:38:39;98989.34;;;16.56;43.85
50125;BME280;36023;48.670;6.184;2023-03-16T09:41:45;98990.97;;;16.59;43.83
50125;BME280;36023;48.670;6.184;2023-03-16T09:44:33;98996.06;;;16.62;43.59
50125;BME280;36023;48.670;6.184;2023-03-16T09:47:05;98994.28;;;16.62;43.61
50125;BME280;36023;48.670;6.184;2023-03-16T09:49:47;98991.59;;;16.64;43.61
50125;BME280;36023;48.670;6.184;2023-03-16T09:57:32;98988.84;;;16.67;43.09
50125;BME280;36023;48.670;6.184;2023-03-16T10:00:17;98988.06;;;16.65;43.13
50125;BME280;36023;48.670;6.184;2023-03-16T10:05:41;98983.84;;;16.62;43.10
50125;BME280;36023;48.670;6.184;2023-03-16T10:08:14;98981.38;;;16.59;43.05
50125;BME280;36023;48.670;6.184;2023-03-16T10:16:21;98980.56;;;16.57;43.21
50125;BME280;36023;48.670;6.184;2023-03-16T10:18:57;98980.66;;;16.56;43.03
50125;BME280;36023;48.670;6.184;2023-03-16T10:21:27;98976.41;;;16.53;43.04
50125;BME280;36023;48.670;6.184;2023-03-16T10:23:56;98973.94;;;16.50;43.05
50125;BME280;36023;48.670;6.184;2023-03-16T10:26:36;98968.16;;;16.43;42.71
50125;BME280;36023;48.670;6.184;2023-03-16T10:29:10;98966.56;;;16.39;42.83
50125;BME280;36023;48.670;6.184;2023-03-16T10:31:37;98973.66;;;16.37;42.91
50125;BME280;36023;48.670;6.184;2023-03-16T10:34:05;98969.41;;;16.35;42.96
50125;BME280;36023;48.670;6.184;2023-03-16T10:36:33;98970.31;;;16.34;43.04
50125;BME280;36023;48.670;6.184;2023-03-16T10:39:06;98968.63;;;16.33;43.07
50125;BME280;36023;48.670;6.184;2023-03-16T10:41:35;98967.78;;;16.32;43.21
50125;BME280;36023;48.670;6.184;2023-03-16T10:44:12;98964.38;;;16.30;43.18
50125;BME280;36023;48.670;6.184;2023-03-16T10:46:47;98967.06;;;16.29;43.35
50125;BME280;36023;48.670;6.184;2023-03-16T10:49:25;98957.53;;;16.28;43.21
50125;BME280;36023;48.670;6.184;2023-03-16T10:51:59;98966.34;;;16.25;43.20
50125;BME280;36023;48.670;6.184;2023-03-16T10:54:32;98950.81;;;16.22;42.97
50125;BME280;36023;48.670;6.184;2023-03-16T10:57:12;98955.19;;;16.22;43.23
50125;BME280;36023;48.670;6.184;2023-03-16T10:59:38;98954.44;;;16.20;43.20
50125;BME280;36023;48.670;6.184;2023-03-16T11:02:29;98951.00;;;16.17;43.18
50125;BME280;36023;48.670;6.184;2023-03-16T11:04:55;98947.56;;;16.17;43.19
50125;BME280;36023;48.670;6.184;2023-03-16T11:07:22;98942.41;;;16.15;43.19
50125;BME280;36023;48.670;6.184;2023-03-16T11:09:54;98943.31;;;16.14;43.19
50125;BME280;36023;48.670;6.184;2023-03-16T11:12:25;98943.47;;;16.11;43.18
50125;BME280;36023;48.670;6.184;2023-03-16T11:14:50;98943.47;;;16.11;43.19
50125;BME280;36023;48.670;6.184;2023-03-16T11:17:36;98936.53;;;16.10;43.13
50125;BME280;36023;48.670;6.184;2023-03-16T11:20:08;98931.31;;;16.10;43.11
50125;BME280;36023;48.670;6.184;2023-03-16T11:22:40;98923.63;;;16.07;43.12
50125;BME280;36023;48.670;6.184;2023-03-16T11:25:11;98928.84;;;16.07;43.04
50125;BME280;36023;48.670;6.184;2023-03-16T11:30:28;98932.44;;;16.05;43.10
50125;BME280;36023;48.670;6.184;2023-03-16T11:32:58;98933.38;;;16.04;42.76
50125;BME280;36023;48.670;6.184;2023-03-16T11:40:35;98927.34;;;16.02;42.66
50125;BME280;36023;48.670;6.184;2023-03-16T11:43:31;98920.50;;;15.99;42.79
50125;BME280;36023;48.670;6.184;2023-03-16T11:49:22;98905.75;;;15.98;42.87
50125;BME280;36023;48.670;6.184;2023-03-16T12:00:26;98892.81;;;15.95;42.86
50125;BME280;36023;48.670;6.184;2023-03-16T12:05:54;98889.22;;;15.98;42.73
50125;BME280;36023;48.670;6.184;2023-03-16T12:11:04;98881.31;;;15.99;42.78
50125;BME280;36023;48.670;6.184;2023-03-16T12:18:58;98871.56;;;16.03;42.63
50125;BME280;36023;48.670;6.184;2023-03-16T12:21:40;98865.44;;;16.04;42.59
50125;BME280;36023;48.670;6.184;2023-03-16T12:24:16;98861.06;;;16.04;42.62
50125;BME280;36023;48.670;6.184;2023-03-16T12:26:44;98857.66;;;16.02;42.66
50125;BME280;36023;48.670;6.184;2023-03-16T12:29:55;98865.44;;;16.04;42.52
50125;BME280;36023;48.670;6.184;2023-03-16T12:32:37;98854.94;;;16.05;42.79
50125;BME280;36023;48.670;6.184;2023-03-16T12:38:00;98844.31;;;16.08;42.66
50125;BME280;36023;48.670;6.184;2023-03-16T12:40:36;98839.09;;;16.08;42.82
50125;BME280;36023;48.670;6.184;2023-03-16T12:43:21;98842.56;;;16.09;42.45
50125;BME280;36023;48.670;6.184;2023-03-16T12:46:08;98839.09;;;16.08;42.58
50125;BME280;36023;48.670;6.184;2023-03-16T12:48:43;98827.72;;;16.09;42.70
50125;BME280;36023;48.670;6.184;2023-03-16T12:51:10;98832.91;;;16.11;42.79
50125;BME280;36023;48.670;6.184;2023-03-16T12:53:45;98820.69;;;16.11;42.65
50125;BME280;36023;48.670;6.184;2023-03-16T13:00:05;98802.41;;;16.11;42.62
50125;BME280;36023;48.670;6.184;2023-03-16T13:02:38;98805.00;;;16.11;42.41
50125;BME280;36023;48.670;6.184;2023-03-16T13:05:15;98798.88;;;16.12;42.34
50125;BME280;36023;48.670;6.184;2023-03-16T13:08:09;98798.03;;;16.12;42.46
50125;BME280;36023;48.670;6.184;2023-03-16T13:10:36;98791.03;;;16.12;42.32
50125;BME280;36023;48.670;6.184;2023-03-16T13:13:13;98793.63;;;16.12;42.27
50125;BME280;36023;48.670;6.184;2023-03-16T13:15:41;98786.66;;;16.13;42.35
50125;BME280;36023;48.670;6.184;2023-03-16T13:20:55;98789.25;;;16.13;42.22
50125;BME280;36023;48.670;6.184;2023-03-16T13:23:26;98790.19;;;16.12;42.02
50125;BME280;36023;48.670;6.184;2023-03-16T13:26:10;98787.56;;;16.12;42.09
50125;BME280;36023;48.670;6.184;2023-03-16T13:28:40;98780.66;;;16.11;42.13
50125;BME280;36023;48.670;6.184;2023-03-16T13:31:24;98777.16;;;16.10;41.97
50125;BME280;36023;48.670;6.184;2023-03-16T13:33:55;98779.78;;;16.10;41.95
50125;BME280;36023;48.670;6.184;2023-03-16T13:36:26;98765.88;;;16.10;41.83
50125;BME280;36023;48.670;6.184;2023-03-16T13:39:13;98766.66;;;16.12;41.89
50125;BME280;36023;48.670;6.184;2023-03-16T13:41:40;98763.13;;;16.13;41.65
50125;BME280;36023;48.670;6.184;2023-03-16T13:44:14;98761.44;;;16.12;41.92
50125;BME280;36023;48.670;6.184;2023-03-16T13:46:39;98772.75;;;16.12;41.77
50125;BME280;36023;48.670;6.184;2023-03-16T13:49:05;98760.59;;;16.11;41.93
50125;BME280;36023;48.670;6.184;2023-03-16T13:51:33;98755.38;;;16.11;42.04
50125;BME280;36023;48.670;6.184;2023-03-16T13:54:17;98755.38;;;16.11;41.98
50125;BME280;36023;48.670;6.184;2023-03-16T13:56:45;98751.00;;;16.12;42.04
50125;BME280;36023;48.670;6.184;2023-03-16T13:59:16;98748.31;;;16.13;41.97
50125;BME280;36023;48.670;6.184;2023-03-16T14:01:44;98748.31;;;16.13;42.04
50125;BME280;36023;48.670;6.184;2023-03-16T14:04:11;98747.38;;;16.14;41.98
50125;BME280;36023;48.670;6.184;2023-03-16T14:06:55;98746.47;;;16.15;41.94
50125;BME280;36023;48.670;6.184;2023-03-16T14:09:24;98743.75;;;16.17;42.08
50125;BME280;36023;48.670;6.184;2023-03-16T14:11:52;98747.22;;;16.17;41.92
50125;BME280;36023;48.670;6.184;2023-03-16T14:14:37;98744.59;;;16.17;41.92
50125;BME280;36023;48.670;6.184;2023-03-16T14:17:15;98746.31;;;16.19;41.94